sensor_id;sensor_type;location;lat;lon;timestamp;P1;durP1;ratioP1;P2;durP2;ratioP2
17207;SDS011;8720;48.488;9.202;2023-12-14T00:01:40;1.70;;;1.43;;
17207;SDS011;8720;48.488;9.202;2023-12-14T00:04:07;1.90;;;1.50;;
17207;SDS011;8720;48.488;9.202;2023-12-14T00:06:35;2.17;;;1.97;;
17207;SDS011;8720;48.488;9.202;2023-12-14T00:09:02;2.23;;;1.97;;
17207;SDS011;8720;48.488;9.202;2023-12-14T00:11:29;2.50;;;2.30;;
17207;SDS011;8720;48.488;9.202;2023-12-14T00:13:57;2.63;;;2.20;;
17207;SDS011;8720;48.488;9.202;2023-12-14T00:16:24;13.13;;;11.37;;
17207;SDS011;8720;48.488;9.202;2023-12-14T00:18:53;5.07;;;4.00;;
17207;SDS011;8720;48.488;9.202;2023-12-14T00:21:20;3.70;;;3.40;;
17207;SDS011;8720;48.488;9.202;2023-12-14T00:23:47;3.90;;;2.67;;
17207;SDS011;8720;48.488;9.202;2023-12-14T00:26:15;2.30;;;2.10;;
17207;SDS011;8720;48.488;9.202;2023-12-14T00:28:42;2.17;;;1.87;;
17207;SDS011;8720;48.488;9.202;2023-12-14T00:31:10;2.57;;;1.93;;
17207;SDS011;8720;48.488;9.202;2023-12-14T00:33:37;1.90;;;1.63;;
17207;SDS011;8720;48.488;9.202;2023-12-14T00:36:06;1.83;;;1.63;;
17207;SDS011;8720;48.488;9.202;2023-12-14T00:38:34;1.97;;;1.60;;
17207;SDS011;8720;48.488;9.202;2023-12-14T00:41:01;1.60;;;1.50;;
17207;SDS011;8720;48.488;9.202;2023-12-14T00:43:29;2.10;;;1.60;;
17207;SDS011;8720;48.488;9.202;2023-12-14T00:45:56;1.60;;;1.40;;
17207;SDS011;8720;48.488;9.202;2023-12-14T00:48:24;2.23;;;1.50;;
17207;SDS011;8720;48.488;9.202;2023-12-14T00:50:51;1.57;;;1.30;;
17207;SDS011;8720;48.488;9.202;2023-12-14T00:53:20;1.93;;;1.60;;
17207;SDS011;8720;48.488;9.202;2023-12-14T00:55:47;1.77;;;1.63;;
17207;SDS011;8720;48.488;9.202;2023-12-14T00:58:14;2.03;;;1.40;;
17207;SDS011;8720;48.488;9.202;2023-12-14T01:00:42;2.67;;;1.50;;
17207;SDS011;8720;48.488;9.202;2023-12-14T01:03:09;2.30;;;1.33;;
17207;SDS011;8720;48.488;9.202;2023-12-14T01:05:36;1.33;;;1.23;;
17207;SDS011;8720;48.488;9.202;2023-12-14T01:08:04;1.13;;;1.00;;
17207;SDS011;8720;48.488;9.202;2023-12-14T01:10:33;1.40;;;1.20;;
17207;SDS011;8720;48.488;9.202;2023-12-14T01:13:01;1.43;;;0.90;;
17207;SDS011;8720;48.488;9.202;2023-12-14T01:15:29;1.30;;;1.10;;
17207;SDS011;8720;48.488;9.202;2023-12-14T01:17:56;1.40;;;1.13;;
17207;SDS011;8720;48.488;9.202;2023-12-14T01:20:23;1.50;;;1.07;;
17207;SDS011;8720;48.488;9.202;2023-12-14T01:22:51;2.27;;;1.20;;
17207;SDS011;8720;48.488;9.202;2023-12-14T01:25:18;2.70;;;1.30;;
17207;SDS011;8720;48.488;9.202;2023-12-14T01:27:47;1.37;;;1.00;;
17207;SDS011;8720;48.488;9.202;2023-12-14T01:30:14;1.87;;;1.20;;
17207;SDS011;8720;48.488;9.202;2023-12-14T01:32:41;2.00;;;1.30;;
17207;SDS011;8720;48.488;9.202;2023-12-14T01:35:09;1.33;;;1.07;;
17207;SDS011;8720;48.488;9.202;2023-12-14T01:37:36;1.37;;;1.00;;
17207;SDS011;8720;48.488;9.202;2023-12-14T01:40:03;2.00;;;1.30;;
17207;SDS011;8720;48.488;9.202;2023-12-14T01:42:32;1.37;;;1.20;;
17207;SDS011;8720;48.488;9.202;2023-12-14T01:45:01;1.60;;;1.30;;
17207;SDS011;8720;48.488;9.202;2023-12-14T01:47:29;1.23;;;1.10;;
17207;SDS011;8720;48.488;9.202;2023-12-14T01:49:56;1.90;;;1.00;;
17207;SDS011;8720;48.488;9.202;2023-12-14T01:52:23;3.30;;;1.20;;
17207;SDS011;8720;48.488;9.202;2023-12-14T01:54:51;1.97;;;1.00;;
17207;SDS011;8720;48.488;9.202;2023-12-14T01:57:20;2.23;;;1.10;;
17207;SDS011;8720;48.488;9.202;2023-12-14T01:59:47;1.23;;;1.00;;
17207;SDS011;8720;48.488;9.202;2023-12-14T02:02:16;1.23;;;0.93;;
17207;SDS011;8720;48.488;9.202;2023-12-14T02:04:43;1.30;;;1.20;;
17207;SDS011;8720;48.488;9.202;2023-12-14T02:07:10;1.50;;;1.00;;
17207;SDS011;8720;48.488;9.202;2023-12-14T02:09:38;1.77;;;1.10;;
17207;SDS011;8720;48.488;9.202;2023-12-14T02:12:05;1.80;;;1.50;;
17207;SDS011;8720;48.488;9.202;2023-12-14T02:14:33;1.60;;;1.20;;
17207;SDS011;8720;48.488;9.202;2023-12-14T02:17:00;1.33;;;1.20;;
17207;SDS011;8720;48.488;9.202;2023-12-14T02:19:29;1.93;;;1.47;;
17207;SDS011;8720;48.488;9.202;2023-12-14T02:21:56;1.47;;;1.27;;
17207;SDS011;8720;48.488;9.202;2023-12-14T02:24:25;1.70;;;1.40;;
17207;SDS011;8720;48.488;9.202;2023-12-14T02:26:52;1.50;;;1.40;;
17207;SDS011;8720;48.488;9.202;2023-12-14T02:29:19;2.13;;;1.63;;
17207;SDS011;8720;48.488;9.202;2023-12-14T02:31:47;1.70;;;1.50;;
17207;SDS011;8720;48.488;9.202;2023-12-14T02:34:14;1.90;;;1.60;;
17207;SDS011;8720;48.488;9.202;2023-12-14T02:36:42;1.60;;;1.50;;
17207;SDS011;8720;48.488;9.202;2023-12-14T02:39:09;1.90;;;1.30;;
17207;SDS011;8720;48.488;9.202;2023-12-14T02:41:38;1.90;;;1.40;;
17207;SDS011;8720;48.488;9.202;2023-12-14T02:44:05;1.40;;;1.30;;
17207;SDS011;8720;48.488;9.202;2023-12-14T02:46:32;1.60;;;1.30;;
17207;SDS011;8720;48.488;9.202;2023-12-14T02:48:59;1.77;;;1.37;;
17207;SDS011;8720;48.488;9.202;2023-12-14T02:51:27;1.97;;;1.37;;
17207;SDS011;8720;48.488;9.202;2023-12-14T02:53:54;1.40;;;1.20;;
17207;SDS011;8720;48.488;9.202;2023-12-14T02:56:22;1.40;;;1.30;;
17207;SDS011;8720;48.488;9.202;2023-12-14T02:58:51;1.77;;;1.20;;
17207;SDS011;8720;48.488;9.202;2023-12-14T03:01:19;1.70;;;1.30;;
17207;SDS011;8720;48.488;9.202;2023-12-14T03:03:47;1.67;;;1.10;;
17207;SDS011;8720;48.488;9.202;2023-12-14T03:06:14;2.00;;;1.33;;
17207;SDS011;8720;48.488;9.202;2023-12-14T03:08:40;2.30;;;1.00;;
17207;SDS011;8720;48.488;9.202;2023-12-14T03:11:08;2.20;;;1.07;;
17207;SDS011;8720;48.488;9.202;2023-12-14T03:13:35;2.27;;;1.20;;
17207;SDS011;8720;48.488;9.202;2023-12-14T03:16:04;1.27;;;1.00;;
17207;SDS011;8720;48.488;9.202;2023-12-14T03:18:33;2.43;;;1.10;;
17207;SDS011;8720;48.488;9.202;2023-12-14T03:21:00;1.30;;;0.93;;
17207;SDS011;8720;48.488;9.202;2023-12-14T03:23:27;1.83;;;1.03;;
17207;SDS011;8720;48.488;9.202;2023-12-14T03:25:54;1.57;;;1.10;;
17207;SDS011;8720;48.488;9.202;2023-12-14T03:28:22;1.97;;;1.00;;
17207;SDS011;8720;48.488;9.202;2023-12-14T03:30:49;1.30;;;1.00;;
17207;SDS011;8720;48.488;9.202;2023-12-14T03:33:17;1.30;;;1.10;;
17207;SDS011;8720;48.488;9.202;2023-12-14T03:35:45;1.40;;;1.00;;
17207;SDS011;8720;48.488;9.202;2023-12-14T03:38:12;1.60;;;1.17;;
17207;SDS011;8720;48.488;9.202;2023-12-14T03:40:40;3.40;;;1.17;;
17207;SDS011;8720;48.488;9.202;2023-12-14T03:43:07;1.50;;;1.20;;
17207;SDS011;8720;48.488;9.202;2023-12-14T03:45:35;2.23;;;1.03;;
17207;SDS011;8720;48.488;9.202;2023-12-14T03:48:02;2.27;;;1.10;;
17207;SDS011;8720;48.488;9.202;2023-12-14T03:50:31;1.40;;;0.83;;
17207;SDS011;8720;48.488;9.202;2023-12-14T03:52:59;1.60;;;1.17;;
17207;SDS011;8720;48.488;9.202;2023-12-14T03:55:26;1.33;;;1.00;;
17207;SDS011;8720;48.488;9.202;2023-12-14T03:57:53;1.40;;;1.10;;
17207;SDS011;8720;48.488;9.202;2023-12-14T04:00:20;1.20;;;1.10;;
17207;SDS011;8720;48.488;9.202;2023-12-14T04:02:48;1.60;;;1.13;;
17207;SDS011;8720;48.488;9.202;2023-12-14T04:05:15;1.50;;;0.90;;
17207;SDS011;8720;48.488;9.202;2023-12-14T04:07:44;1.40;;;1.10;;
17207;SDS011;8720;48.488;9.202;2023-12-14T04:10:13;1.60;;;1.00;;
17207;SDS011;8720;48.488;9.202;2023-12-14T04:12:40;1.57;;;1.20;;
17207;SDS011;8720;48.488;9.202;2023-12-14T04:15:09;1.60;;;1.13;;
17207;SDS011;8720;48.488;9.202;2023-12-14T04:17:36;1.20;;;1.00;;
17207;SDS011;8720;48.488;9.202;2023-12-14T04:20:04;2.13;;;0.90;;
17207;SDS011;8720;48.488;9.202;2023-12-14T04:22:33;2.27;;;0.90;;
17207;SDS011;8720;48.488;9.202;2023-12-14T04:25:02;1.30;;;1.03;;
17207;SDS011;8720;48.488;9.202;2023-12-14T04:27:30;2.10;;;1.00;;
17207;SDS011;8720;48.488;9.202;2023-12-14T04:29:57;1.43;;;1.10;;
17207;SDS011;8720;48.488;9.202;2023-12-14T04:32:24;1.90;;;1.10;;
17207;SDS011;8720;48.488;9.202;2023-12-14T04:34:52;1.30;;;1.00;;
17207;SDS011;8720;48.488;9.202;2023-12-14T04:37:19;1.77;;;1.00;;
17207;SDS011;8720;48.488;9.202;2023-12-14T04:39:49;1.30;;;1.10;;
17207;SDS011;8720;48.488;9.202;2023-12-14T04:42:18;1.83;;;1.30;;
17207;SDS011;8720;48.488;9.202;2023-12-14T04:44:45;1.70;;;1.43;;
17207;SDS011;8720;48.488;9.202;2023-12-14T04:47:12;1.97;;;1.23;;
17207;SDS011;8720;48.488;9.202;2023-12-14T04:49:40;1.73;;;1.10;;
17207;SDS011;8720;48.488;9.202;2023-12-14T04:52:07;1.27;;;1.00;;
17207;SDS011;8720;48.488;9.202;2023-12-14T04:54:34;1.30;;;1.20;;
17207;SDS011;8720;48.488;9.202;2023-12-14T04:57:04;1.60;;;1.20;;
17207;SDS011;8720;48.488;9.202;2023-12-14T04:59:33;1.60;;;1.20;;
17207;SDS011;8720;48.488;9.202;2023-12-14T05:02:00;2.23;;;1.10;;
17207;SDS011;8720;48.488;9.202;2023-12-14T05:04:27;1.40;;;1.23;;
17207;SDS011;8720;48.488;9.202;2023-12-14T05:06:54;1.90;;;1.30;;
17207;SDS011;8720;48.488;9.202;2023-12-14T05:09:22;2.03;;;1.07;;
17207;SDS011;8720;48.488;9.202;2023-12-14T05:11:49;1.23;;;1.13;;
17207;SDS011;8720;48.488;9.202;2023-12-14T05:14:18;1.33;;;1.10;;
17207;SDS011;8720;48.488;9.202;2023-12-14T05:16:47;1.60;;;1.30;;
17207;SDS011;8720;48.488;9.202;2023-12-14T05:19:14;1.40;;;1.30;;
17207;SDS011;8720;48.488;9.202;2023-12-14T05:21:41;1.20;;;1.10;;
17207;SDS011;8720;48.488;9.202;2023-12-14T05:24:09;1.20;;;1.10;;
17207;SDS011;8720;48.488;9.202;2023-12-14T05:26:36;1.70;;;1.40;;
17207;SDS011;8720;48.488;9.202;2023-12-14T05:29:03;2.20;;;1.23;;
17207;SDS011;8720;48.488;9.202;2023-12-14T05:31:31;1.50;;;1.20;;
17207;SDS011;8720;48.488;9.202;2023-12-14T05:33:59;1.50;;;1.30;;
17207;SDS011;8720;48.488;9.202;2023-12-14T05:36:27;1.53;;;1.40;;
17207;SDS011;8720;48.488;9.202;2023-12-14T05:38:55;1.97;;;1.23;;
17207;SDS011;8720;48.488;9.202;2023-12-14T05:41:23;1.40;;;1.20;;
17207;SDS011;8720;48.488;9.202;2023-12-14T05:43:50;1.47;;;1.37;;
17207;SDS011;8720;48.488;9.202;2023-12-14T05:46:21;3.27;;;1.90;;
17207;SDS011;8720;48.488;9.202;2023-12-14T05:48:49;2.00;;;1.80;;
17207;SDS011;8720;48.488;9.202;2023-12-14T05:51:27;2.10;;;1.80;;
17207;SDS011;8720;48.488;9.202;2023-12-14T05:53:55;1.90;;;1.70;;
17207;SDS011;8720;48.488;9.202;2023-12-14T05:56:22;2.80;;;1.70;;
17207;SDS011;8720;48.488;9.202;2023-12-14T05:58:50;2.40;;;2.20;;
17207;SDS011;8720;48.488;9.202;2023-12-14T06:01:18;3.40;;;2.43;;
17207;SDS011;8720;48.488;9.202;2023-12-14T06:03:46;3.73;;;2.90;;
17207;SDS011;8720;48.488;9.202;2023-12-14T06:06:13;3.50;;;3.07;;
17207;SDS011;8720;48.488;9.202;2023-12-14T06:08:42;2.80;;;2.60;;
17207;SDS011;8720;48.488;9.202;2023-12-14T06:11:09;3.63;;;3.30;;
17207;SDS011;8720;48.488;9.202;2023-12-14T06:13:37;3.33;;;3.00;;
17207;SDS011;8720;48.488;9.202;2023-12-14T06:16:05;2.70;;;2.50;;
17207;SDS011;8720;48.488;9.202;2023-12-14T06:18:37;4.00;;;3.07;;
17207;SDS011;8720;48.488;9.202;2023-12-14T06:21:06;4.00;;;3.57;;
17207;SDS011;8720;48.488;9.202;2023-12-14T06:23:34;3.90;;;3.30;;
17207;SDS011;8720;48.488;9.202;2023-12-14T06:26:03;4.30;;;3.43;;
17207;SDS011;8720;48.488;9.202;2023-12-14T06:28:31;3.53;;;3.23;;
17207;SDS011;8720;48.488;9.202;2023-12-14T06:30:58;3.53;;;3.23;;
17207;SDS011;8720;48.488;9.202;2023-12-14T06:33:27;5.97;;;3.13;;
17207;SDS011;8720;48.488;9.202;2023-12-14T06:35:54;4.10;;;3.70;;
17207;SDS011;8720;48.488;9.202;2023-12-14T06:38:22;3.10;;;2.80;;
17207;SDS011;8720;48.488;9.202;2023-12-14T06:40:49;2.60;;;2.40;;
17207;SDS011;8720;48.488;9.202;2023-12-14T06:43:18;4.00;;;3.70;;
17207;SDS011;8720;48.488;9.202;2023-12-14T06:45:45;4.13;;;3.73;;
17207;SDS011;8720;48.488;9.202;2023-12-14T06:48:12;5.70;;;4.63;;
17207;SDS011;8720;48.488;9.202;2023-12-14T06:50:40;4.33;;;3.90;;
17207;SDS011;8720;48.488;9.202;2023-12-14T06:53:07;4.27;;;3.87;;
17207;SDS011;8720;48.488;9.202;2023-12-14T06:55:35;5.10;;;4.60;;
17207;SDS011;8720;48.488;9.202;2023-12-14T06:58:02;4.10;;;3.50;;
17207;SDS011;8720;48.488;9.202;2023-12-14T07:00:35;4.20;;;3.90;;
17207;SDS011;8720;48.488;9.202;2023-12-14T07:03:02;5.20;;;4.50;;
17207;SDS011;8720;48.488;9.202;2023-12-14T07:05:30;5.40;;;4.90;;
17207;SDS011;8720;48.488;9.202;2023-12-14T07:07:58;5.13;;;4.63;;
17207;SDS011;8720;48.488;9.202;2023-12-14T07:10:26;3.67;;;3.37;;
17207;SDS011;8720;48.488;9.202;2023-12-14T07:12:53;3.57;;;3.27;;
17207;SDS011;8720;48.488;9.202;2023-12-14T07:15:21;4.70;;;2.97;;
17207;SDS011;8720;48.488;9.202;2023-12-14T07:17:50;3.60;;;3.30;;
17207;SDS011;8720;48.488;9.202;2023-12-14T07:20:17;3.20;;;2.90;;
17207;SDS011;8720;48.488;9.202;2023-12-14T07:22:45;3.00;;;2.53;;
17207;SDS011;8720;48.488;9.202;2023-12-14T07:25:12;3.00;;;2.70;;
17207;SDS011;8720;48.488;9.202;2023-12-14T07:27:40;4.43;;;3.30;;
17207;SDS011;8720;48.488;9.202;2023-12-14T07:30:08;5.50;;;4.40;;
17207;SDS011;8720;48.488;9.202;2023-12-14T07:32:37;4.43;;;3.70;;
17207;SDS011;8720;48.488;9.202;2023-12-14T07:35:06;4.70;;;3.77;;
17207;SDS011;8720;48.488;9.202;2023-12-14T07:37:35;4.17;;;3.30;;
17207;SDS011;8720;48.488;9.202;2023-12-14T07:40:03;3.20;;;2.90;;
17207;SDS011;8720;48.488;9.202;2023-12-14T07:42:32;3.27;;;2.97;;
17207;SDS011;8720;48.488;9.202;2023-12-14T07:44:59;3.20;;;2.90;;
17207;SDS011;8720;48.488;9.202;2023-12-14T07:47:26;3.30;;;3.00;;
17207;SDS011;8720;48.488;9.202;2023-12-14T07:49:54;2.70;;;2.47;;
17207;SDS011;8720;48.488;9.202;2023-12-14T07:52:23;3.10;;;2.80;;
17207;SDS011;8720;48.488;9.202;2023-12-14T07:54:50;3.30;;;3.00;;
17207;SDS011;8720;48.488;9.202;2023-12-14T07:57:17;11.10;;;10.20;;
17207;SDS011;8720;48.488;9.202;2023-12-14T07:59:49;9.20;;;8.40;;
17207;SDS011;8720;48.488;9.202;2023-12-14T08:02:16;7.90;;;7.10;;
17207;SDS011;8720;48.488;9.202;2023-12-14T08:04:43;7.70;;;7.00;;
17207;SDS011;8720;48.488;9.202;2023-12-14T08:07:11;6.17;;;5.67;;
17207;SDS011;8720;48.488;9.202;2023-12-14T08:09:40;4.27;;;3.87;;
17207;SDS011;8720;48.488;9.202;2023-12-14T08:12:07;4.27;;;3.87;;
17207;SDS011;8720;48.488;9.202;2023-12-14T08:14:35;4.20;;;3.87;;
17207;SDS011;8720;48.488;9.202;2023-12-14T08:17:06;5.50;;;3.90;;
17207;SDS011;8720;48.488;9.202;2023-12-14T08:19:33;3.50;;;3.10;;
17207;SDS011;8720;48.488;9.202;2023-12-14T08:22:01;4.40;;;4.00;;
17207;SDS011;8720;48.488;9.202;2023-12-14T08:24:28;3.70;;;3.30;;
17207;SDS011;8720;48.488;9.202;2023-12-14T08:26:56;2.90;;;2.70;;
17207;SDS011;8720;48.488;9.202;2023-12-14T08:29:23;3.33;;;3.03;;
17207;SDS011;8720;48.488;9.202;2023-12-14T08:31:51;4.77;;;3.70;;
17207;SDS011;8720;48.488;9.202;2023-12-14T08:34:18;3.37;;;3.07;;
17207;SDS011;8720;48.488;9.202;2023-12-14T08:36:46;3.17;;;2.93;;
17207;SDS011;8720;48.488;9.202;2023-12-14T08:39:13;3.53;;;2.77;;
17207;SDS011;8720;48.488;9.202;2023-12-14T08:41:41;3.70;;;2.53;;
17207;SDS011;8720;48.488;9.202;2023-12-14T08:44:11;3.70;;;3.10;;
17207;SDS011;8720;48.488;9.202;2023-12-14T08:46:39;4.67;;;2.67;;
17207;SDS011;8720;48.488;9.202;2023-12-14T08:49:07;4.00;;;2.80;;
17207;SDS011;8720;48.488;9.202;2023-12-14T08:51:34;3.60;;;3.30;;
17207;SDS011;8720;48.488;9.202;2023-12-14T08:54:02;3.03;;;2.70;;
17207;SDS011;8720;48.488;9.202;2023-12-14T08:56:29;2.90;;;2.33;;
17207;SDS011;8720;48.488;9.202;2023-12-14T08:58:57;3.50;;;2.10;;
17207;SDS011;8720;48.488;9.202;2023-12-14T09:01:26;2.00;;;1.80;;
17207;SDS011;8720;48.488;9.202;2023-12-14T09:03:54;2.37;;;2.17;;
17207;SDS011;8720;48.488;9.202;2023-12-14T09:06:21;2.70;;;2.40;;
17207;SDS011;8720;48.488;9.202;2023-12-14T09:08:49;4.23;;;2.03;;
17207;SDS011;8720;48.488;9.202;2023-12-14T09:11:19;2.47;;;2.23;;
17207;SDS011;8720;48.488;9.202;2023-12-14T09:13:46;1.77;;;1.67;;
17207;SDS011;8720;48.488;9.202;2023-12-14T09:16:14;2.80;;;2.33;;
17207;SDS011;8720;48.488;9.202;2023-12-14T09:18:43;2.07;;;1.70;;
17207;SDS011;8720;48.488;9.202;2023-12-14T09:21:11;2.40;;;1.57;;
17207;SDS011;8720;48.488;9.202;2023-12-14T09:23:40;2.07;;;1.57;;
17207;SDS011;8720;48.488;9.202;2023-12-14T09:26:07;1.37;;;1.27;;
17207;SDS011;8720;48.488;9.202;2023-12-14T09:28:35;1.50;;;1.30;;
17207;SDS011;8720;48.488;9.202;2023-12-14T09:31:03;1.80;;;1.47;;
17207;SDS011;8720;48.488;9.202;2023-12-14T09:33:30;1.63;;;1.40;;
17207;SDS011;8720;48.488;9.202;2023-12-14T09:35:59;1.50;;;1.20;;
17207;SDS011;8720;48.488;9.202;2023-12-14T09:38:27;1.60;;;1.30;;
17207;SDS011;8720;48.488;9.202;2023-12-14T09:40:54;1.50;;;1.00;;
17207;SDS011;8720;48.488;9.202;2023-12-14T09:43:22;2.97;;;1.23;;
17207;SDS011;8720;48.488;9.202;2023-12-14T09:45:49;1.70;;;1.27;;
17207;SDS011;8720;48.488;9.202;2023-12-14T09:48:18;2.90;;;1.50;;
17207;SDS011;8720;48.488;9.202;2023-12-14T09:50:48;1.30;;;1.00;;
17207;SDS011;8720;48.488;9.202;2023-12-14T09:53:18;1.40;;;1.00;;
17207;SDS011;8720;48.488;9.202;2023-12-14T09:55:45;1.50;;;1.10;;
17207;SDS011;8720;48.488;9.202;2023-12-14T09:58:13;1.57;;;1.20;;
17207;SDS011;8720;48.488;9.202;2023-12-14T10:00:41;1.30;;;1.20;;
17207;SDS011;8720;48.488;9.202;2023-12-14T10:03:19;2.03;;;1.13;;
17207;SDS011;8720;48.488;9.202;2023-12-14T10:05:49;2.40;;;1.30;;
17207;SDS011;8720;48.488;9.202;2023-12-14T10:08:18;2.20;;;0.90;;
17207;SDS011;8720;48.488;9.202;2023-12-14T10:10:46;1.53;;;1.00;;
17207;SDS011;8720;48.488;9.202;2023-12-14T10:13:17;1.77;;;1.10;;
17207;SDS011;8720;48.488;9.202;2023-12-14T10:15:46;1.60;;;1.23;;
17207;SDS011;8720;48.488;9.202;2023-12-14T10:18:19;1.60;;;1.30;;
17207;SDS011;8720;48.488;9.202;2023-12-14T10:20:50;2.10;;;1.47;;
17207;SDS011;8720;48.488;9.202;2023-12-14T10:23:19;1.70;;;1.50;;
17207;SDS011;8720;48.488;9.202;2023-12-14T10:25:47;2.50;;;2.17;;
17207;SDS011;8720;48.488;9.202;2023-12-14T10:28:14;1.97;;;1.77;;
17207;SDS011;8720;48.488;9.202;2023-12-14T10:30:43;2.10;;;1.90;;
17207;SDS011;8720;48.488;9.202;2023-12-14T10:33:10;2.47;;;1.90;;
17207;SDS011;8720;48.488;9.202;2023-12-14T10:35:39;3.13;;;2.00;;
17207;SDS011;8720;48.488;9.202;2023-12-14T10:38:09;3.80;;;2.23;;
17207;SDS011;8720;48.488;9.202;2023-12-14T10:40:40;2.50;;;2.30;;
17207;SDS011;8720;48.488;9.202;2023-12-14T10:43:08;2.37;;;2.10;;
17207;SDS011;8720;48.488;9.202;2023-12-14T10:45:38;2.00;;;1.77;;
17207;SDS011;8720;48.488;9.202;2023-12-14T10:48:09;2.10;;;1.90;;
17207;SDS011;8720;48.488;9.202;2023-12-14T10:50:38;2.30;;;2.10;;
17207;SDS011;8720;48.488;9.202;2023-12-14T10:53:09;2.43;;;2.17;;
17207;SDS011;8720;48.488;9.202;2023-12-14T10:55:37;3.23;;;2.10;;
17207;SDS011;8720;48.488;9.202;2023-12-14T10:58:09;2.20;;;2.00;;
17207;SDS011;8720;48.488;9.202;2023-12-14T11:00:38;2.80;;;2.30;;
17207;SDS011;8720;48.488;9.202;2023-12-14T11:03:06;6.47;;;2.60;;
17207;SDS011;8720;48.488;9.202;2023-12-14T11:05:33;3.07;;;2.57;;
17207;SDS011;8720;48.488;9.202;2023-12-14T11:08:01;2.73;;;2.27;;
17207;SDS011;8720;48.488;9.202;2023-12-14T11:10:38;3.17;;;2.30;;
17207;SDS011;8720;48.488;9.202;2023-12-14T11:13:10;3.30;;;2.60;;
17207;SDS011;8720;48.488;9.202;2023-12-14T11:15:40;2.40;;;2.17;;
17207;SDS011;8720;48.488;9.202;2023-12-14T11:18:24;3.13;;;2.93;;
17207;SDS011;8720;48.488;9.202;2023-12-14T11:20:56;2.30;;;2.10;;
17207;SDS011;8720;48.488;9.202;2023-12-14T11:23:26;2.80;;;2.50;;
17207;SDS011;8720;48.488;9.202;2023-12-14T11:25:59;2.80;;;2.00;;
17207;SDS011;8720;48.488;9.202;2023-12-14T11:28:30;3.20;;;2.00;;
17207;SDS011;8720;48.488;9.202;2023-12-14T11:30:59;2.70;;;2.13;;
17207;SDS011;8720;48.488;9.202;2023-12-14T11:33:31;3.17;;;2.20;;
17207;SDS011;8720;48.488;9.202;2023-12-14T11:36:00;2.87;;;2.30;;
17207;SDS011;8720;48.488;9.202;2023-12-14T11:38:29;2.33;;;1.70;;
17207;SDS011;8720;48.488;9.202;2023-12-14T11:40:59;2.53;;;1.97;;
17207;SDS011;8720;48.488;9.202;2023-12-14T11:43:27;2.90;;;1.87;;
17207;SDS011;8720;48.488;9.202;2023-12-14T11:45:54;2.40;;;1.53;;
17207;SDS011;8720;48.488;9.202;2023-12-14T11:48:23;2.20;;;1.60;;
17207;SDS011;8720;48.488;9.202;2023-12-14T11:50:51;2.10;;;1.53;;
17207;SDS011;8720;48.488;9.202;2023-12-14T11:53:19;1.93;;;1.27;;
17207;SDS011;8720;48.488;9.202;2023-12-14T11:55:46;1.43;;;1.20;;
17207;SDS011;8720;48.488;9.202;2023-12-14T11:58:15;2.83;;;1.70;;
17207;SDS011;8720;48.488;9.202;2023-12-14T12:00:43;3.10;;;1.40;;
17207;SDS011;8720;48.488;9.202;2023-12-14T12:03:13;1.57;;;1.20;;
17207;SDS011;8720;48.488;9.202;2023-12-14T12:05:42;4.37;;;1.50;;
17207;SDS011;8720;48.488;9.202;2023-12-14T12:08:14;2.50;;;1.80;;
17207;SDS011;8720;48.488;9.202;2023-12-14T12:10:44;1.40;;;1.30;;
17207;SDS011;8720;48.488;9.202;2023-12-14T12:13:13;4.63;;;2.73;;
17207;SDS011;8720;48.488;9.202;2023-12-14T12:15:44;3.27;;;1.70;;
17207;SDS011;8720;48.488;9.202;2023-12-14T12:18:12;3.10;;;2.07;;
17207;SDS011;8720;48.488;9.202;2023-12-14T12:20:41;2.73;;;1.77;;
17207;SDS011;8720;48.488;9.202;2023-12-14T12:23:09;1.57;;;1.40;;
17207;SDS011;8720;48.488;9.202;2023-12-14T12:25:37;1.90;;;1.60;;
17207;SDS011;8720;48.488;9.202;2023-12-14T12:28:04;2.83;;;1.80;;
17207;SDS011;8720;48.488;9.202;2023-12-14T12:30:33;3.13;;;2.13;;
17207;SDS011;8720;48.488;9.202;2023-12-14T12:33:01;2.93;;;1.80;;
17207;SDS011;8720;48.488;9.202;2023-12-14T12:35:28;2.10;;;1.70;;
17207;SDS011;8720;48.488;9.202;2023-12-14T12:37:58;2.33;;;1.70;;
17207;SDS011;8720;48.488;9.202;2023-12-14T12:40:25;3.37;;;2.13;;
17207;SDS011;8720;48.488;9.202;2023-12-14T12:42:52;3.53;;;3.13;;
17207;SDS011;8720;48.488;9.202;2023-12-14T12:45:20;3.33;;;2.27;;
17207;SDS011;8720;48.488;9.202;2023-12-14T12:47:51;4.17;;;3.00;;
17207;SDS011;8720;48.488;9.202;2023-12-14T12:50:19;2.50;;;2.20;;
17207;SDS011;8720;48.488;9.202;2023-12-14T12:52:46;2.23;;;1.83;;
17207;SDS011;8720;48.488;9.202;2023-12-14T12:55:14;2.00;;;1.80;;
17207;SDS011;8720;48.488;9.202;2023-12-14T12:57:42;2.07;;;1.90;;
17207;SDS011;8720;48.488;9.202;2023-12-14T13:00:10;3.10;;;2.30;;
17207;SDS011;8720;48.488;9.202;2023-12-14T13:02:38;6.33;;;3.50;;
17207;SDS011;8720;48.488;9.202;2023-12-14T13:05:09;4.57;;;2.40;;
17207;SDS011;8720;48.488;9.202;2023-12-14T13:07:43;3.40;;;2.23;;
17207;SDS011;8720;48.488;9.202;2023-12-14T13:10:12;2.50;;;1.93;;
17207;SDS011;8720;48.488;9.202;2023-12-14T13:12:40;3.00;;;2.50;;
17207;SDS011;8720;48.488;9.202;2023-12-14T13:15:09;4.00;;;2.90;;
17207;SDS011;8720;48.488;9.202;2023-12-14T13:17:37;2.73;;;2.30;;
17207;SDS011;8720;48.488;9.202;2023-12-14T13:20:05;2.70;;;2.40;;
17207;SDS011;8720;48.488;9.202;2023-12-14T13:22:36;2.60;;;2.20;;
17207;SDS011;8720;48.488;9.202;2023-12-14T13:25:05;2.40;;;2.20;;
17207;SDS011;8720;48.488;9.202;2023-12-14T13:27:33;2.27;;;2.07;;
17207;SDS011;8720;48.488;9.202;2023-12-14T13:30:01;3.10;;;2.90;;
17207;SDS011;8720;48.488;9.202;2023-12-14T13:32:31;3.77;;;2.90;;
17207;SDS011;8720;48.488;9.202;2023-12-14T13:34:58;3.63;;;2.37;;
17207;SDS011;8720;48.488;9.202;2023-12-14T13:37:28;3.20;;;2.50;;
17207;SDS011;8720;48.488;9.202;2023-12-14T13:39:56;2.70;;;2.13;;
17207;SDS011;8720;48.488;9.202;2023-12-14T13:42:23;2.97;;;2.10;;
17207;SDS011;8720;48.488;9.202;2023-12-14T13:44:51;4.63;;;2.73;;
17207;SDS011;8720;48.488;9.202;2023-12-14T13:47:18;4.80;;;3.03;;
17207;SDS011;8720;48.488;9.202;2023-12-14T13:49:46;4.20;;;3.80;;
17207;SDS011;8720;48.488;9.202;2023-12-14T13:52:13;4.53;;;4.07;;
17207;SDS011;8720;48.488;9.202;2023-12-14T13:54:42;4.37;;;3.63;;
17207;SDS011;8720;48.488;9.202;2023-12-14T13:57:10;7.10;;;4.40;;
17207;SDS011;8720;48.488;9.202;2023-12-14T13:59:37;5.67;;;4.67;;
17207;SDS011;8720;48.488;9.202;2023-12-14T14:02:05;5.70;;;4.70;;
17207;SDS011;8720;48.488;9.202;2023-12-14T14:04:32;4.00;;;3.60;;
17207;SDS011;8720;48.488;9.202;2023-12-14T14:06:59;8.80;;;3.10;;
17207;SDS011;8720;48.488;9.202;2023-12-14T14:09:27;4.20;;;3.20;;
17207;SDS011;8720;48.488;9.202;2023-12-14T14:11:56;4.70;;;3.17;;
17207;SDS011;8720;48.488;9.202;2023-12-14T14:14:24;5.07;;;3.93;;
17207;SDS011;8720;48.488;9.202;2023-12-14T14:16:51;5.00;;;4.13;;
17207;SDS011;8720;48.488;9.202;2023-12-14T14:19:18;8.87;;;5.83;;
17207;SDS011;8720;48.488;9.202;2023-12-14T14:21:46;7.77;;;5.70;;
17207;SDS011;8720;48.488;9.202;2023-12-14T14:24:13;6.33;;;5.27;;
17207;SDS011;8720;48.488;9.202;2023-12-14T14:26:41;7.70;;;5.47;;
17207;SDS011;8720;48.488;9.202;2023-12-14T14:29:09;4.60;;;3.80;;
17207;SDS011;8720;48.488;9.202;2023-12-14T14:31:37;4.00;;;3.60;;
17207;SDS011;8720;48.488;9.202;2023-12-14T14:34:05;5.10;;;3.70;;
17207;SDS011;8720;48.488;9.202;2023-12-14T14:36:32;3.30;;;2.80;;
17207;SDS011;8720;48.488;9.202;2023-12-14T14:39:00;2.77;;;2.57;;
17207;SDS011;8720;48.488;9.202;2023-12-14T14:41:29;3.87;;;2.70;;
17207;SDS011;8720;48.488;9.202;2023-12-14T14:43:57;4.37;;;3.63;;
17207;SDS011;8720;48.488;9.202;2023-12-14T14:46:26;9.50;;;6.37;;
17207;SDS011;8720;48.488;9.202;2023-12-14T14:48:53;5.30;;;4.07;;
17207;SDS011;8720;48.488;9.202;2023-12-14T14:51:21;5.83;;;3.90;;
17207;SDS011;8720;48.488;9.202;2023-12-14T14:53:50;6.30;;;3.73;;
17207;SDS011;8720;48.488;9.202;2023-12-14T14:56:18;4.40;;;3.90;;
17207;SDS011;8720;48.488;9.202;2023-12-14T14:58:45;4.37;;;2.97;;
17207;SDS011;8720;48.488;9.202;2023-12-14T15:01:12;4.57;;;3.00;;
17207;SDS011;8720;48.488;9.202;2023-12-14T15:03:41;3.60;;;3.30;;
17207;SDS011;8720;48.488;9.202;2023-12-14T15:06:09;4.57;;;4.17;;